Goostrey, United Kingdom
Current Conditions -  °F | °C
As of 8:20 AM on Friday 19 Dec 2014 (Local Time) from EGCC Reporting Station
Rain Showers Rain Showers  
Wind Chill: 34°   Ceiling: Unl
Heat Index: 43°   Visibility: 6mi
Dew Point: 37°   Wind: 20mph
Humidity: 81%   Direction: 260°W
Pressure: 29.83"   Gusts: NA
Location:  53.23°N, 2.34°W
Report Text: EGCC 190820Z 26017KT 9999 VCSH SCT023 SCT030 06/03 Q1010 RERA NOSIG
Loading
Personal Weather Stations






























Interactive Weather Map New forecast layout! Learn more

10-Day Weather Forecast

Advertisements
Track Severe Weather on mobile